sensor_id;sensor_type;location;lat;lon;timestamp;P1;durP1;ratioP1;P2;durP2;ratioP2
75854;SDS011;64502;59.976;30.316;2023-02-10T00:00:42;14.20;;;5.10;;
75854;SDS011;64502;59.976;30.316;2023-02-10T00:03:08;13.85;;;6.82;;
75854;SDS011;64502;59.976;30.316;2023-02-10T00:05:33;14.05;;;5.70;;
75854;SDS011;64502;59.976;30.316;2023-02-10T00:07:59;16.42;;;7.43;;
75854;SDS011;64502;59.976;30.316;2023-02-10T00:10:24;13.68;;;5.20;;
75854;SDS011;64502;59.976;30.316;2023-02-10T00:12:50;13.75;;;6.00;;
75854;SDS011;64502;59.976;30.316;2023-02-10T00:15:15;17.52;;;6.05;;
75854;SDS011;64502;59.976;30.316;2023-02-10T00:17:41;14.20;;;6.07;;
75854;SDS011;64502;59.976;30.316;2023-02-10T00:20:06;15.32;;;6.07;;
75854;SDS011;64502;59.976;30.316;2023-02-10T00:22:33;14.57;;;5.55;;
75854;SDS011;64502;59.976;30.316;2023-02-10T00:24:58;15.13;;;6.95;;
75854;SDS011;64502;59.976;30.316;2023-02-10T00:27:24;13.57;;;5.32;;
75854;SDS011;64502;59.976;30.316;2023-02-10T00:29:50;14.00;;;6.43;;
75854;SDS011;64502;59.976;30.316;2023-02-10T00:32:16;16.80;;;6.97;;
75854;SDS011;64502;59.976;30.316;2023-02-10T00:34:42;15.93;;;7.07;;
75854;SDS011;64502;59.976;30.316;2023-02-10T00:37:11;14.55;;;5.68;;
75854;SDS011;64502;59.976;30.316;2023-02-10T00:39:37;13.98;;;6.30;;
75854;SDS011;64502;59.976;30.316;2023-02-10T00:42:02;16.00;;;6.20;;
75854;SDS011;64502;59.976;30.316;2023-02-10T00:44:28;12.75;;;5.22;;
75854;SDS011;64502;59.976;30.316;2023-02-10T00:46:53;14.13;;;6.93;;
75854;SDS011;64502;59.976;30.316;2023-02-10T00:49:19;12.00;;;5.22;;
75854;SDS011;64502;59.976;30.316;2023-02-10T00:51:44;15.85;;;5.97;;
75854;SDS011;64502;59.976;30.316;2023-02-10T00:54:13;13.93;;;6.07;;
75854;SDS011;64502;59.976;30.316;2023-02-10T00:56:39;16.70;;;6.30;;
75854;SDS011;64502;59.976;30.316;2023-02-10T00:59:05;17.98;;;6.75;;
75854;SDS011;64502;59.976;30.316;2023-02-10T01:01:30;16.85;;;7.45;;
75854;SDS011;64502;59.976;30.316;2023-02-10T01:03:56;17.65;;;6.53;;
75854;SDS011;64502;59.976;30.316;2023-02-10T01:06:22;19.02;;;5.47;;
75854;SDS011;64502;59.976;30.316;2023-02-10T01:08:48;18.55;;;6.32;;
75854;SDS011;64502;59.976;30.316;2023-02-10T01:11:14;16.17;;;6.22;;
75854;SDS011;64502;59.976;30.316;2023-02-10T01:13:40;15.23;;;6.07;;
75854;SDS011;64502;59.976;30.316;2023-02-10T01:16:08;11.95;;;5.32;;
75854;SDS011;64502;59.976;30.316;2023-02-10T01:18:35;17.75;;;7.40;;
75854;SDS011;64502;59.976;30.316;2023-02-10T01:21:05;16.63;;;7.88;;
75854;SDS011;64502;59.976;30.316;2023-02-10T01:23:35;13.00;;;4.90;;
75854;SDS011;64502;59.976;30.316;2023-02-10T01:26:01;15.07;;;5.88;;
75854;SDS011;64502;59.976;30.316;2023-02-10T01:28:27;13.77;;;6.03;;
75854;SDS011;64502;59.976;30.316;2023-02-10T01:30:52;17.95;;;7.18;;
75854;SDS011;64502;59.976;30.316;2023-02-10T01:33:18;14.55;;;6.25;;
75854;SDS011;64502;59.976;30.316;2023-02-10T01:35:43;15.52;;;6.72;;
75854;SDS011;64502;59.976;30.316;2023-02-10T01:38:09;16.10;;;6.25;;
75854;SDS011;64502;59.976;30.316;2023-02-10T01:40:34;14.00;;;5.93;;
75854;SDS011;64502;59.976;30.316;2023-02-10T01:43:00;15.07;;;6.00;;
75854;SDS011;64502;59.976;30.316;2023-02-10T01:45:31;12.88;;;5.40;;
75854;SDS011;64502;59.976;30.316;2023-02-10T01:48:00;14.75;;;6.32;;
75854;SDS011;64502;59.976;30.316;2023-02-10T01:50:27;16.73;;;7.00;;
75854;SDS011;64502;59.976;30.316;2023-02-10T01:52:57;15.70;;;6.38;;
75854;SDS011;64502;59.976;30.316;2023-02-10T01:55:25;12.75;;;5.30;;
75854;SDS011;64502;59.976;30.316;2023-02-10T01:57:58;14.40;;;6.15;;
75854;SDS011;64502;59.976;30.316;2023-02-10T02:00:25;18.65;;;6.72;;
75854;SDS011;64502;59.976;30.316;2023-02-10T02:02:51;13.05;;;5.47;;
75854;SDS011;64502;59.976;30.316;2023-02-10T02:05:39;17.75;;;7.40;;
75854;SDS011;64502;59.976;30.316;2023-02-10T02:08:06;16.75;;;7.63;;
75854;SDS011;64502;59.976;30.316;2023-02-10T02:18:43;13.50;;;6.00;;
75854;SDS011;64502;59.976;30.316;2023-02-10T02:32:11;15.38;;;6.63;;
75854;SDS011;64502;59.976;30.316;2023-02-10T02:34:56;13.55;;;5.38;;
75854;SDS011;64502;59.976;30.316;2023-02-10T02:37:31;18.08;;;8.00;;
75854;SDS011;64502;59.976;30.316;2023-02-10T02:40:01;15.88;;;7.30;;
75854;SDS011;64502;59.976;30.316;2023-02-10T02:42:28;18.80;;;7.80;;
75854;SDS011;64502;59.976;30.316;2023-02-10T02:56:01;15.07;;;6.45;;
75854;SDS011;64502;59.976;30.316;2023-02-10T02:58:43;13.88;;;5.28;;
75854;SDS011;64502;59.976;30.316;2023-02-10T03:01:16;14.13;;;6.50;;
75854;SDS011;64502;59.976;30.316;2023-02-10T03:03:49;12.75;;;5.93;;
75854;SDS011;64502;59.976;30.316;2023-02-10T03:06:16;21.10;;;10.73;;
75854;SDS011;64502;59.976;30.316;2023-02-10T03:08:41;20.77;;;9.30;;
75854;SDS011;64502;59.976;30.316;2023-02-10T03:11:07;14.18;;;6.35;;
75854;SDS011;64502;59.976;30.316;2023-02-10T03:13:32;18.08;;;7.13;;
75854;SDS011;64502;59.976;30.316;2023-02-10T03:15:58;19.35;;;7.65;;
75854;SDS011;64502;59.976;30.316;2023-02-10T03:18:24;12.40;;;5.10;;
75854;SDS011;64502;59.976;30.316;2023-02-10T03:20:50;18.67;;;6.90;;
75854;SDS011;64502;59.976;30.316;2023-02-10T03:23:15;12.25;;;5.93;;
75854;SDS011;64502;59.976;30.316;2023-02-10T03:25:43;17.40;;;7.43;;
75854;SDS011;64502;59.976;30.316;2023-02-10T03:28:09;16.45;;;7.50;;
75854;SDS011;64502;59.976;30.316;2023-02-10T03:30:36;17.42;;;7.40;;
75854;SDS011;64502;59.976;30.316;2023-02-10T03:33:01;15.98;;;8.52;;
75854;SDS011;64502;59.976;30.316;2023-02-10T03:35:27;18.77;;;7.40;;
75854;SDS011;64502;59.976;30.316;2023-02-10T03:37:52;20.13;;;8.27;;
75854;SDS011;64502;59.976;30.316;2023-02-10T03:40:18;18.15;;;7.82;;
75854;SDS011;64502;59.976;30.316;2023-02-10T03:42:43;17.80;;;6.22;;
75854;SDS011;64502;59.976;30.316;2023-02-10T03:45:09;23.30;;;8.77;;
75854;SDS011;64502;59.976;30.316;2023-02-10T03:47:34;15.32;;;7.07;;
75854;SDS011;64502;59.976;30.316;2023-02-10T03:50:00;14.93;;;7.60;;
75854;SDS011;64502;59.976;30.316;2023-02-10T03:52:25;22.15;;;10.77;;
75854;SDS011;64502;59.976;30.316;2023-02-10T03:54:51;17.92;;;7.45;;
75854;SDS011;64502;59.976;30.316;2023-02-10T03:57:16;20.40;;;8.77;;
75854;SDS011;64502;59.976;30.316;2023-02-10T03:59:43;19.38;;;8.25;;
75854;SDS011;64502;59.976;30.316;2023-02-10T04:02:09;19.20;;;7.35;;
75854;SDS011;64502;59.976;30.316;2023-02-10T04:04:34;18.02;;;7.35;;
75854;SDS011;64502;59.976;30.316;2023-02-10T04:07:01;18.33;;;7.53;;
75854;SDS011;64502;59.976;30.316;2023-02-10T04:09:27;17.13;;;7.85;;
75854;SDS011;64502;59.976;30.316;2023-02-10T04:11:53;17.27;;;7.50;;
75854;SDS011;64502;59.976;30.316;2023-02-10T04:14:18;18.23;;;7.28;;
75854;SDS011;64502;59.976;30.316;2023-02-10T04:16:44;18.55;;;7.65;;
75854;SDS011;64502;59.976;30.316;2023-02-10T04:19:09;18.10;;;7.78;;
75854;SDS011;64502;59.976;30.316;2023-02-10T04:21:35;16.42;;;6.57;;
75854;SDS011;64502;59.976;30.316;2023-02-10T04:24:00;18.67;;;7.57;;
75854;SDS011;64502;59.976;30.316;2023-02-10T04:26:26;18.85;;;7.82;;
75854;SDS011;64502;59.976;30.316;2023-02-10T04:28:52;17.30;;;7.55;;
75854;SDS011;64502;59.976;30.316;2023-02-10T04:31:17;18.88;;;8.18;;
75854;SDS011;64502;59.976;30.316;2023-02-10T04:33:43;17.65;;;7.45;;
75854;SDS011;64502;59.976;30.316;2023-02-10T04:36:08;17.92;;;8.32;;
75854;SDS011;64502;59.976;30.316;2023-02-10T04:38:34;16.25;;;7.68;;
75854;SDS011;64502;59.976;30.316;2023-02-10T04:40:59;17.35;;;6.97;;
75854;SDS011;64502;59.976;30.316;2023-02-10T04:43:27;16.63;;;7.72;;
75854;SDS011;64502;59.976;30.316;2023-02-10T04:45:53;18.63;;;7.95;;
75854;SDS011;64502;59.976;30.316;2023-02-10T04:48:19;20.17;;;8.90;;
75854;SDS011;64502;59.976;30.316;2023-02-10T04:50:46;20.58;;;9.43;;
75854;SDS011;64502;59.976;30.316;2023-02-10T04:53:12;16.80;;;7.88;;
75854;SDS011;64502;59.976;30.316;2023-02-10T04:55:37;18.38;;;7.70;;
75854;SDS011;64502;59.976;30.316;2023-02-10T04:58:03;18.67;;;8.48;;
75854;SDS011;64502;59.976;30.316;2023-02-10T05:00:29;17.35;;;8.20;;
75854;SDS011;64502;59.976;30.316;2023-02-10T05:02:55;17.17;;;8.18;;
75854;SDS011;64502;59.976;30.316;2023-02-10T05:05:20;19.77;;;9.40;;
75854;SDS011;64502;59.976;30.316;2023-02-10T05:07:48;22.35;;;9.60;;
75854;SDS011;64502;59.976;30.316;2023-02-10T05:10:14;21.98;;;8.15;;
75854;SDS011;64502;59.976;30.316;2023-02-10T05:12:39;12.30;;;5.75;;
75854;SDS011;64502;59.976;30.316;2023-02-10T05:15:05;23.67;;;9.25;;
75854;SDS011;64502;59.976;30.316;2023-02-10T05:17:32;23.35;;;8.18;;
75854;SDS011;64502;59.976;30.316;2023-02-10T05:19:58;20.98;;;7.63;;
75854;SDS011;64502;59.976;30.316;2023-02-10T05:22:24;16.05;;;8.00;;
75854;SDS011;64502;59.976;30.316;2023-02-10T05:24:54;18.33;;;8.55;;
75854;SDS011;64502;59.976;30.316;2023-02-10T05:27:23;18.85;;;7.30;;
75854;SDS011;64502;59.976;30.316;2023-02-10T05:29:49;21.02;;;8.77;;
75854;SDS011;64502;59.976;30.316;2023-02-10T05:32:14;23.40;;;10.55;;
75854;SDS011;64502;59.976;30.316;2023-02-10T05:34:40;19.17;;;8.95;;
75854;SDS011;64502;59.976;30.316;2023-02-10T05:37:05;18.27;;;8.57;;
75854;SDS011;64502;59.976;30.316;2023-02-10T05:39:31;19.48;;;6.97;;
75854;SDS011;64502;59.976;30.316;2023-02-10T05:41:57;21.95;;;8.05;;
75854;SDS011;64502;59.976;30.316;2023-02-10T05:44:24;19.65;;;9.00;;
75854;SDS011;64502;59.976;30.316;2023-02-10T05:46:52;20.02;;;9.30;;
75854;SDS011;64502;59.976;30.316;2023-02-10T05:49:18;21.05;;;10.15;;
75854;SDS011;64502;59.976;30.316;2023-02-10T05:51:44;21.35;;;8.40;;
75854;SDS011;64502;59.976;30.316;2023-02-10T05:54:09;20.98;;;8.90;;
75854;SDS011;64502;59.976;30.316;2023-02-10T05:56:35;21.42;;;9.70;;
75854;SDS011;64502;59.976;30.316;2023-02-10T05:59:00;19.30;;;7.80;;
75854;SDS011;64502;59.976;30.316;2023-02-10T06:01:26;19.20;;;8.23;;
75854;SDS011;64502;59.976;30.316;2023-02-10T06:03:52;14.63;;;6.13;;
75854;SDS011;64502;59.976;30.316;2023-02-10T06:06:17;18.17;;;6.72;;
75854;SDS011;64502;59.976;30.316;2023-02-10T06:08:43;21.45;;;8.82;;
75854;SDS011;64502;59.976;30.316;2023-02-10T06:11:09;19.83;;;9.38;;
75854;SDS011;64502;59.976;30.316;2023-02-10T06:13:34;19.38;;;8.18;;
75854;SDS011;64502;59.976;30.316;2023-02-10T06:16:00;20.35;;;9.00;;
75854;SDS011;64502;59.976;30.316;2023-02-10T06:18:29;21.23;;;8.65;;
75854;SDS011;64502;59.976;30.316;2023-02-10T06:20:55;19.85;;;9.73;;
75854;SDS011;64502;59.976;30.316;2023-02-10T06:23:22;20.50;;;9.20;;
75854;SDS011;64502;59.976;30.316;2023-02-10T06:25:47;17.63;;;7.63;;
75854;SDS011;64502;59.976;30.316;2023-02-10T06:28:19;19.10;;;7.80;;
75854;SDS011;64502;59.976;30.316;2023-02-10T06:30:46;16.30;;;8.07;;
75854;SDS011;64502;59.976;30.316;2023-02-10T06:33:11;21.23;;;8.70;;
75854;SDS011;64502;59.976;30.316;2023-02-10T06:35:37;19.80;;;10.18;;
75854;SDS011;64502;59.976;30.316;2023-02-10T06:38:02;24.83;;;10.10;;
75854;SDS011;64502;59.976;30.316;2023-02-10T06:40:28;24.17;;;9.27;;
75854;SDS011;64502;59.976;30.316;2023-02-10T06:42:53;18.67;;;8.43;;
75854;SDS011;64502;59.976;30.316;2023-02-10T06:45:18;18.73;;;8.88;;
75854;SDS011;64502;59.976;30.316;2023-02-10T06:47:44;21.88;;;9.07;;
75854;SDS011;64502;59.976;30.316;2023-02-10T06:50:09;23.05;;;9.15;;
75854;SDS011;64502;59.976;30.316;2023-02-10T06:52:37;18.92;;;7.75;;
75854;SDS011;64502;59.976;30.316;2023-02-10T06:55:04;19.35;;;8.50;;
75854;SDS011;64502;59.976;30.316;2023-02-10T06:57:31;19.98;;;9.45;;
75854;SDS011;64502;59.976;30.316;2023-02-10T06:59:56;18.15;;;7.35;;
75854;SDS011;64502;59.976;30.316;2023-02-10T07:02:23;19.63;;;8.88;;
75854;SDS011;64502;59.976;30.316;2023-02-10T07:04:49;21.48;;;7.88;;
75854;SDS011;64502;59.976;30.316;2023-02-10T07:07:14;18.42;;;7.82;;
75854;SDS011;64502;59.976;30.316;2023-02-10T07:09:40;18.45;;;8.40;;
75854;SDS011;64502;59.976;30.316;2023-02-10T07:12:05;18.55;;;7.82;;
75854;SDS011;64502;59.976;30.316;2023-02-10T07:14:31;18.90;;;8.05;;
75854;SDS011;64502;59.976;30.316;2023-02-10T07:16:56;25.52;;;8.98;;
75854;SDS011;64502;59.976;30.316;2023-02-10T07:19:22;18.00;;;9.30;;
75854;SDS011;64502;59.976;30.316;2023-02-10T07:21:47;17.98;;;8.45;;
75854;SDS011;64502;59.976;30.316;2023-02-10T07:24:12;16.63;;;8.98;;
75854;SDS011;64502;59.976;30.316;2023-02-10T07:26:39;18.75;;;8.95;;
75854;SDS011;64502;59.976;30.316;2023-02-10T07:29:05;15.95;;;6.70;;
75854;SDS011;64502;59.976;30.316;2023-02-10T07:31:31;16.65;;;6.88;;
75854;SDS011;64502;59.976;30.316;2023-02-10T07:33:59;20.02;;;7.75;;
75854;SDS011;64502;59.976;30.316;2023-02-10T07:36:25;18.40;;;8.55;;
75854;SDS011;64502;59.976;30.316;2023-02-10T07:38:51;15.52;;;7.10;;
75854;SDS011;64502;59.976;30.316;2023-02-10T07:41:16;18.50;;;7.38;;
75854;SDS011;64502;59.976;30.316;2023-02-10T07:43:41;14.77;;;8.13;;
75854;SDS011;64502;59.976;30.316;2023-02-10T07:46:07;15.88;;;6.53;;
75854;SDS011;64502;59.976;30.316;2023-02-10T07:48:32;18.25;;;9.00;;
75854;SDS011;64502;59.976;30.316;2023-02-10T07:50:58;17.65;;;5.13;;
75854;SDS011;64502;59.976;30.316;2023-02-10T07:53:23;15.77;;;6.57;;
75854;SDS011;64502;59.976;30.316;2023-02-10T07:55:49;15.40;;;6.35;;
75854;SDS011;64502;59.976;30.316;2023-02-10T07:58:14;18.10;;;7.20;;
75854;SDS011;64502;59.976;30.316;2023-02-10T08:00:41;16.08;;;6.95;;
75854;SDS011;64502;59.976;30.316;2023-02-10T08:03:13;15.80;;;8.13;;
75854;SDS011;64502;59.976;30.316;2023-02-10T08:05:51;17.25;;;8.15;;
75854;SDS011;64502;59.976;30.316;2023-02-10T08:08:17;15.25;;;6.90;;
75854;SDS011;64502;59.976;30.316;2023-02-10T08:10:42;18.38;;;8.07;;
75854;SDS011;64502;59.976;30.316;2023-02-10T08:13:08;14.63;;;7.60;;
75854;SDS011;64502;59.976;30.316;2023-02-10T08:15:33;18.88;;;9.00;;
75854;SDS011;64502;59.976;30.316;2023-02-10T08:17:59;17.67;;;7.68;;
75854;SDS011;64502;59.976;30.316;2023-02-10T08:20:25;17.10;;;6.55;;
75854;SDS011;64502;59.976;30.316;2023-02-10T08:22:55;14.38;;;6.05;;
75854;SDS011;64502;59.976;30.316;2023-02-10T08:25:21;17.40;;;7.60;;
75854;SDS011;64502;59.976;30.316;2023-02-10T08:27:46;13.75;;;5.60;;
75854;SDS011;64502;59.976;30.316;2023-02-10T08:30:12;18.48;;;6.45;;
75854;SDS011;64502;59.976;30.316;2023-02-10T08:32:38;12.10;;;5.55;;
75854;SDS011;64502;59.976;30.316;2023-02-10T08:35:03;11.57;;;6.32;;
75854;SDS011;64502;59.976;30.316;2023-02-10T08:37:30;13.23;;;5.03;;
75854;SDS011;64502;59.976;30.316;2023-02-10T08:39:55;15.07;;;5.60;;
75854;SDS011;64502;59.976;30.316;2023-02-10T08:42:21;16.40;;;5.97;;
75854;SDS011;64502;59.976;30.316;2023-02-10T08:44:46;12.40;;;5.38;;
75854;SDS011;64502;59.976;30.316;2023-02-10T08:47:11;8.77;;;4.10;;
75854;SDS011;64502;59.976;30.316;2023-02-10T08:49:39;10.25;;;4.47;;
75854;SDS011;64502;59.976;30.316;2023-02-10T08:52:06;14.68;;;5.75;;
75854;SDS011;64502;59.976;30.316;2023-02-10T08:54:31;12.65;;;5.03;;
75854;SDS011;64502;59.976;30.316;2023-02-10T08:56:57;9.95;;;4.63;;
75854;SDS011;64502;59.976;30.316;2023-02-10T08:59:22;11.55;;;4.80;;
75854;SDS011;64502;59.976;30.316;2023-02-10T09:01:48;11.48;;;5.45;;
75854;SDS011;64502;59.976;30.316;2023-02-10T09:04:14;9.57;;;4.07;;
75854;SDS011;64502;59.976;30.316;2023-02-10T09:06:40;13.10;;;5.35;;
75854;SDS011;64502;59.976;30.316;2023-02-10T09:09:12;9.60;;;4.38;;
75854;SDS011;64502;59.976;30.316;2023-02-10T09:11:48;8.77;;;3.65;;
75854;SDS011;64502;59.976;30.316;2023-02-10T09:14:14;11.55;;;4.88;;
75854;SDS011;64502;59.976;30.316;2023-02-10T09:16:40;8.65;;;3.83;;
75854;SDS011;64502;59.976;30.316;2023-02-10T09:19:05;8.95;;;3.88;;
75854;SDS011;64502;59.976;30.316;2023-02-10T09:21:31;9.82;;;3.65;;
75854;SDS011;64502;59.976;30.316;2023-02-10T09:23:57;6.75;;;3.03;;
75854;SDS011;64502;59.976;30.316;2023-02-10T09:26:23;7.00;;;2.78;;
75854;SDS011;64502;59.976;30.316;2023-02-10T09:28:49;12.95;;;2.70;;
75854;SDS011;64502;59.976;30.316;2023-02-10T09:31:15;9.05;;;3.03;;
75854;SDS011;64502;59.976;30.316;2023-02-10T09:33:41;7.57;;;2.92;;
75854;SDS011;64502;59.976;30.316;2023-02-10T09:36:10;14.32;;;3.75;;
75854;SDS011;64502;59.976;30.316;2023-02-10T09:38:38;9.90;;;2.38;;
75854;SDS011;64502;59.976;30.316;2023-02-10T09:41:07;8.68;;;3.03;;
75854;SDS011;64502;59.976;30.316;2023-02-10T09:43:46;7.70;;;2.22;;
75854;SDS011;64502;59.976;30.316;2023-02-10T09:54:57;7.78;;;1.25;;
75854;SDS011;64502;59.976;30.316;2023-02-10T09:57:37;4.85;;;0.98;;
75854;SDS011;64502;59.976;30.316;2023-02-10T10:00:05;4.65;;;0.80;;
75854;SDS011;64502;59.976;30.316;2023-02-10T10:02:46;3.13;;;0.70;;
75854;SDS011;64502;59.976;30.316;2023-02-10T10:08:04;2.90;;;0.40;;
75854;SDS011;64502;59.976;30.316;2023-02-10T10:10:59;3.50;;;1.17;;
75854;SDS011;64502;59.976;30.316;2023-02-10T10:13:29;5.47;;;1.13;;
75854;SDS011;64502;59.976;30.316;2023-02-10T10:21:35;1.90;;;0.30;;
75854;SDS011;64502;59.976;30.316;2023-02-10T10:24:18;3.42;;;0.40;;
75854;SDS011;64502;59.976;30.316;2023-02-10T10:29:53;1.42;;;0.52;;
75854;SDS011;64502;59.976;30.316;2023-02-10T10:35:25;1.98;;;0.40;;
75854;SDS011;64502;59.976;30.316;2023-02-10T10:37:55;2.38;;;0.20;;
75854;SDS011;64502;59.976;30.316;2023-02-10T10:40:22;2.78;;;0.40;;
75854;SDS011;64502;59.976;30.316;2023-02-10T10:42:54;2.22;;;0.30;;
75854;SDS011;64502;59.976;30.316;2023-02-10T10:47:51;2.95;;;0.40;;
75854;SDS011;64502;59.976;30.316;2023-02-10T10:50:20;1.55;;;0.20;;
75854;SDS011;64502;59.976;30.316;2023-02-10T10:52:49;1.90;;;0.30;;
75854;SDS011;64502;59.976;30.316;2023-02-10T10:58:27;2.28;;;0.10;;
75854;SDS011;64502;59.976;30.316;2023-02-10T11:00:56;1.02;;;0.10;;
75854;SDS011;64502;59.976;30.316;2023-02-10T11:03:24;1.55;;;0.10;;
75854;SDS011;64502;59.976;30.316;2023-02-10T11:06:04;0.77;;;0.10;;
75854;SDS011;64502;59.976;30.316;2023-02-10T11:08:34;1.40;;;0.03;;
75854;SDS011;64502;59.976;30.316;2023-02-10T11:11:07;0.68;;;0.00;;
75854;SDS011;64502;59.976;30.316;2023-02-10T11:13:41;1.05;;;0.10;;
75854;SDS011;64502;59.976;30.316;2023-02-10T11:16:15;0.60;;;0.00;;
75854;SDS011;64502;59.976;30.316;2023-02-10T11:18:51;1.00;;;0.00;;
75854;SDS011;64502;59.976;30.316;2023-02-10T11:21:35;1.25;;;0.10;;
75854;SDS011;64502;59.976;30.316;2023-02-10T11:24:48;2.20;;;0.17;;
75854;SDS011;64502;59.976;30.316;2023-02-10T11:29:24;1.13;;;0.10;;
75854;SDS011;64502;59.976;30.316;2023-02-10T11:31:51;2.13;;;0.00;;
75854;SDS011;64502;59.976;30.316;2023-02-10T11:34:28;2.78;;;0.10;;
75854;SDS011;64502;59.976;30.316;2023-02-10T11:36:57;1.30;;;0.13;;
75854;SDS011;64502;59.976;30.316;2023-02-10T11:39:35;0.35;;;0.10;;
75854;SDS011;64502;59.976;30.316;2023-02-10T11:42:10;3.58;;;0.20;;
75854;SDS011;64502;59.976;30.316;2023-02-10T11:45:03;1.90;;;0.40;;
75854;SDS011;64502;59.976;30.316;2023-02-10T11:47:43;3.08;;;0.40;;
75854;SDS011;64502;59.976;30.316;2023-02-10T11:50:24;1.90;;;0.15;;
75854;SDS011;64502;59.976;30.316;2023-02-10T11:52:51;3.05;;;0.15;;
75854;SDS011;64502;59.976;30.316;2023-02-10T11:55:17;6.22;;;0.40;;
75854;SDS011;64502;59.976;30.316;2023-02-10T12:06:06;3.33;;;0.30;;
75854;SDS011;64502;59.976;30.316;2023-02-10T12:11:31;3.65;;;0.32;;
75854;SDS011;64502;59.976;30.316;2023-02-10T12:14:06;0.73;;;0.13;;
75854;SDS011;64502;59.976;30.316;2023-02-10T12:22:44;1.10;;;0.10;;
75854;SDS011;64502;59.976;30.316;2023-02-10T12:25:37;2.53;;;0.32;;
75854;SDS011;64502;59.976;30.316;2023-02-10T12:36:03;2.78;;;0.10;;
75854;SDS011;64502;59.976;30.316;2023-02-10T12:47:38;2.75;;;0.10;;
75854;SDS011;64502;59.976;30.316;2023-02-10T12:55:59;1.67;;;0.22;;
75854;SDS011;64502;59.976;30.316;2023-02-10T12:58:45;4.18;;;0.30;;
75854;SDS011;64502;59.976;30.316;2023-02-10T13:03:47;2.30;;;0.25;;
75854;SDS011;64502;59.976;30.316;2023-02-10T13:14:27;1.42;;;0.00;;
75854;SDS011;64502;59.976;30.316;2023-02-10T13:16:54;0.85;;;0.08;;
75854;SDS011;64502;59.976;30.316;2023-02-10T13:21:58;0.95;;;0.00;;
75854;SDS011;64502;59.976;30.316;2023-02-10T13:24:32;2.67;;;0.10;;
75854;SDS011;64502;59.976;30.316;2023-02-10T13:27:29;2.65;;;0.10;;
75854;SDS011;64502;59.976;30.316;2023-02-10T13:30:33;3.40;;;0.15;;
75854;SDS011;64502;59.976;30.316;2023-02-10T13:35:36;1.30;;;0.00;;
75854;SDS011;64502;59.976;30.316;2023-02-10T13:38:08;1.23;;;0.00;;
75854;SDS011;64502;59.976;30.316;2023-02-10T13:40:49;1.38;;;0.10;;
75854;SDS011;64502;59.976;30.316;2023-02-10T13:43:28;1.27;;;0.20;;
75854;SDS011;64502;59.976;30.316;2023-02-10T13:45:59;1.23;;;0.13;;
75854;SDS011;64502;59.976;30.316;2023-02-10T13:48:35;2.70;;;0.17;;
75854;SDS011;64502;59.976;30.316;2023-02-10T13:58:47;2.33;;;0.40;;
75854;SDS011;64502;59.976;30.316;2023-02-10T14:06:42;1.23;;;0.00;;
75854;SDS011;64502;59.976;30.316;2023-02-10T14:12:03;4.05;;;0.17;;
75854;SDS011;64502;59.976;30.316;2023-02-10T14:14:44;0.98;;;0.10;;
75854;SDS011;64502;59.976;30.316;2023-02-10T14:17:26;1.98;;;0.10;;
75854;SDS011;64502;59.976;30.316;2023-02-10T14:19:57;1.02;;;0.00;;
75854;SDS011;64502;59.976;30.316;2023-02-10T14:22:33;1.35;;;0.00;;
75854;SDS011;64502;59.976;30.316;2023-02-10T14:27:33;1.58;;;0.40;;
75854;SDS011;64502;59.976;30.316;2023-02-10T14:30:00;0.25;;;0.00;;
75854;SDS011;64502;59.976;30.316;2023-02-10T14:32:30;1.38;;;0.00;;
75854;SDS011;64502;59.976;30.316;2023-02-10T14:34:57;3.97;;;0.20;;
75854;SDS011;64502;59.976;30.316;2023-02-10T14:37:30;2.05;;;0.32;;
75854;SDS011;64502;59.976;30.316;2023-02-10T14:39:57;2.95;;;0.00;;
75854;SDS011;64502;59.976;30.316;2023-02-10T14:42:25;0.93;;;0.00;;
75854;SDS011;64502;59.976;30.316;2023-02-10T14:44:54;0.73;;;0.00;;
75854;SDS011;64502;59.976;30.316;2023-02-10T14:47:25;0.38;;;0.00;;
75854;SDS011;64502;59.976;30.316;2023-02-10T14:49:55;2.05;;;0.13;;
75854;SDS011;64502;59.976;30.316;2023-02-10T14:54:57;3.05;;;0.13;;
75854;SDS011;64502;59.976;30.316;2023-02-10T14:57:24;4.13;;;0.00;;
75854;SDS011;64502;59.976;30.316;2023-02-10T14:59:54;3.60;;;0.20;;
75854;SDS011;64502;59.976;30.316;2023-02-10T15:02:30;1.48;;;0.10;;
75854;SDS011;64502;59.976;30.316;2023-02-10T15:04:59;2.88;;;0.17;;
75854;SDS011;64502;59.976;30.316;2023-02-10T15:07:32;1.88;;;0.00;;
75854;SDS011;64502;59.976;30.316;2023-02-10T15:10:13;1.85;;;0.20;;
75854;SDS011;64502;59.976;30.316;2023-02-10T15:12:44;0.60;;;0.00;;
75854;SDS011;64502;59.976;30.316;2023-02-10T15:17:48;0.90;;;0.10;;
75854;SDS011;64502;59.976;30.316;2023-02-10T15:22:42;4.55;;;0.10;;
75854;SDS011;64502;59.976;30.316;2023-02-10T15:27:59;3.22;;;0.10;;
75854;SDS011;64502;59.976;30.316;2023-02-10T15:33:23;2.67;;;0.30;;
75854;SDS011;64502;59.976;30.316;2023-02-10T15:38:22;2.75;;;0.28;;
75854;SDS011;64502;59.976;30.316;2023-02-10T15:40:53;1.38;;;0.00;;
75854;SDS011;64502;59.976;30.316;2023-02-10T15:45:48;1.85;;;0.00;;
75854;SDS011;64502;59.976;30.316;2023-02-10T15:48:20;0.30;;;0.10;;
75854;SDS011;64502;59.976;30.316;2023-02-10T15:50:46;2.08;;;0.10;;
75854;SDS011;64502;59.976;30.316;2023-02-10T15:53:20;3.58;;;0.00;;
75854;SDS011;64502;59.976;30.316;2023-02-10T15:55:46;1.67;;;0.00;;
75854;SDS011;64502;59.976;30.316;2023-02-10T15:58:13;1.48;;;0.10;;
75854;SDS011;64502;59.976;30.316;2023-02-10T16:00:40;0.82;;;0.00;;
75854;SDS011;64502;59.976;30.316;2023-02-10T16:03:08;3.03;;;0.30;;
75854;SDS011;64502;59.976;30.316;2023-02-10T16:05:35;2.58;;;0.13;;
75854;SDS011;64502;59.976;30.316;2023-02-10T16:08:06;3.78;;;0.25;;
75854;SDS011;64502;59.976;30.316;2023-02-10T16:10:40;1.85;;;0.28;;
75854;SDS011;64502;59.976;30.316;2023-02-10T16:13:06;0.68;;;0.00;;
75854;SDS011;64502;59.976;30.316;2023-02-10T16:15:32;1.17;;;0.20;;
75854;SDS011;64502;59.976;30.316;2023-02-10T16:17:58;1.40;;;0.28;;
75854;SDS011;64502;59.976;30.316;2023-02-10T16:20:27;2.80;;;0.10;;
75854;SDS011;64502;59.976;30.316;2023-02-10T16:22:56;1.38;;;0.10;;
75854;SDS011;64502;59.976;30.316;2023-02-10T16:25:23;1.15;;;0.20;;
75854;SDS011;64502;59.976;30.316;2023-02-10T16:27:50;2.45;;;0.20;;
75854;SDS011;64502;59.976;30.316;2023-02-10T16:30:17;2.40;;;0.28;;
75854;SDS011;64502;59.976;30.316;2023-02-10T16:32:45;1.40;;;0.20;;
75854;SDS011;64502;59.976;30.316;2023-02-10T16:35:11;1.58;;;0.17;;
75854;SDS011;64502;59.976;30.316;2023-02-10T16:37:38;2.50;;;0.10;;
75854;SDS011;64502;59.976;30.316;2023-02-10T16:40:04;4.47;;;0.20;;
75854;SDS011;64502;59.976;30.316;2023-02-10T16:42:30;1.67;;;0.20;;
75854;SDS011;64502;59.976;30.316;2023-02-10T16:44:55;3.13;;;0.32;;
75854;SDS011;64502;59.976;30.316;2023-02-10T16:47:21;2.72;;;0.03;;
75854;SDS011;64502;59.976;30.316;2023-02-10T16:49:47;1.35;;;0.20;;
75854;SDS011;64502;59.976;30.316;2023-02-10T16:52:13;1.23;;;0.10;;
75854;SDS011;64502;59.976;30.316;2023-02-10T16:54:39;1.33;;;0.10;;
75854;SDS011;64502;59.976;30.316;2023-02-10T16:57:06;2.50;;;0.80;;
75854;SDS011;64502;59.976;30.316;2023-02-10T16:59:32;2.55;;;0.30;;
75854;SDS011;64502;59.976;30.316;2023-02-10T17:01:57;4.40;;;0.30;;
75854;SDS011;64502;59.976;30.316;2023-02-10T17:04:23;1.33;;;0.10;;
75854;SDS011;64502;59.976;30.316;2023-02-10T17:06:49;2.88;;;0.13;;